Time;durP1;ratioP1;P1;durP2;ratioP2;P2;SDS_P1;SDS_P2;PMS_P1;PMS_P2;Temp;Humidity;BMP_temperature;BMP_pressure;BME280_temperature;BME280_humidity;BME280_pressure;Samples;Min_cycle;Max_cycle;Signal;HPM_P1;HPM_P2
2023/10/16 00:01:03;;;;;;;3.97;1.83;;;;;;;19.48;57.62;100992.03;5071691;28;20440;-59
2023/10/16 00:03:29;;;;;;;2.30;1.50;;;;;;;19.48;57.71;101000.63;5071129;28;20827;-58
2023/10/16 00:05:54;;;;;;;3.43;1.60;;;;;;;19.48;57.70;101000.63;5070754;28;20425;-58
2023/10/16 00:08:20;;;;;;;2.73;1.50;;;;;;;19.48;57.86;100996.91;5053812;28;20179;-58
2023/10/16 00:10:55;;;;;;;4.73;1.63;;;;;;;19.48;57.78;100994.06;5068553;28;20190;-59
2023/10/16 00:13:23;;;;;;;2.33;1.37;;;;;;;19.47;57.85;100989.53;5071419;28;20163;-59
2023/10/16 00:15:49;;;;;;;3.57;1.50;;;;;;;19.48;57.82;100989.16;5070994;28;20535;-58
2023/10/16 00:18:18;;;;;;;2.50;1.40;;;;;;;19.47;58.04;100980.94;5071676;28;20461;-57
2023/10/16 00:20:47;;;;;;;2.47;1.27;;;;;;;19.46;58.20;100985.00;5070656;28;20226;-58
2023/10/16 00:23:12;;;;;;;3.10;1.50;;;;;;;19.45;58.28;100987.03;5071473;28;20437;-58
2023/10/16 00:25:39;;;;;;;2.57;1.50;;;;;;;19.45;58.37;100987.03;5072292;28;20498;-59
2023/10/16 00:28:08;;;;;;;2.80;1.60;;;;;;;19.44;58.59;100991.09;5071601;28;20186;-59
2023/10/16 00:30:40;;;;;;;3.00;1.60;;;;;;;19.46;58.42;100982.16;5066171;28;20457;-58
2023/10/16 00:33:06;;;;;;;3.10;1.50;;;;;;;19.43;58.95;100986.59;5070976;28;20463;-59
2023/10/16 00:35:32;;;;;;;3.87;1.50;;;;;;;19.42;58.54;100979.16;5071145;28;20507;-58
2023/10/16 00:37:58;;;;;;;3.30;1.93;;;;;;;19.43;58.60;100980.84;5069753;28;21374;-57
2023/10/16 00:40:33;;;;;;;2.77;1.40;;;;;;;19.43;58.45;100983.72;5071212;28;20187;-59
2023/10/16 00:43:19;;;;;;;2.70;1.57;;;;;;;19.44;58.66;100985.38;5072335;28;20420;-58
2023/10/16 00:45:48;;;;;;;2.27;1.30;;;;;;;19.42;58.82;100982.03;5067768;28;20919;-58
2023/10/16 00:48:17;;;;;;;4.00;1.80;;;;;;;19.41;58.82;100971.78;5070525;28;20512;-59
2023/10/16 00:50:48;;;;;;;2.93;1.50;;;;;;;19.42;58.95;100976.31;5071203;28;20428;-58
2023/10/16 00:53:15;;;;;;;2.30;1.30;;;;;;;19.41;58.81;100970.97;5069738;28;20467;-58
2023/10/16 00:55:41;;;;;;;3.67;1.57;;;;;;;19.41;58.85;100966.06;5069875;28;21033;-58
2023/10/16 00:58:06;;;;;;;2.13;1.40;;;;;;;19.41;59.18;100954.59;5068785;28;20476;-58
2023/10/16 01:00:45;;;;;;;2.50;1.20;;;;;;;19.42;58.88;100956.25;5071008;28;20530;-59
2023/10/16 01:03:11;;;;;;;3.30;1.50;;;;;;;19.41;58.99;100948.06;5063660;28;20187;-59
2023/10/16 01:05:41;;;;;;;4.40;1.80;;;;;;;19.41;59.11;100948.06;5071933;28;20429;-59
2023/10/16 01:08:07;;;;;;;2.77;1.47;;;;;;;19.38;59.38;100941.06;5070979;28;20194;-58
2023/10/16 01:10:34;;;;;;;3.93;1.60;;;;;;;19.38;59.33;100932.47;5071754;28;20416;-58
2023/10/16 01:13:01;;;;;;;2.30;1.30;;;;;;;19.38;59.25;100932.47;5071833;28;20413;-58
2023/10/16 01:15:27;;;;;;;2.50;1.30;;;;;;;19.38;59.16;100931.63;5067483;28;20824;-58
2023/10/16 01:17:53;;;;;;;2.10;1.20;;;;;;;19.38;59.21;100937.34;5065469;28;20464;-58
2023/10/16 01:20:21;;;;;;;3.20;1.63;;;;;;;19.39;59.19;100939.00;5071272;28;20745;-58
2023/10/16 01:22:47;;;;;;;5.50;1.73;;;;;;;19.37;59.57;100930.78;5070677;28;20205;-58
2023/10/16 01:25:14;;;;;;;4.20;1.60;;;;;;;19.36;59.46;100920.53;5070299;28;20432;-57
2023/10/16 01:27:40;;;;;;;3.20;1.20;;;;;;;19.37;59.57;100915.66;5071499;28;20496;-58
2023/10/16 01:30:06;;;;;;;2.57;1.50;;;;;;;19.35;59.75;100918.88;5071324;28;20861;-58
2023/10/16 01:32:32;;;;;;;2.77;1.20;;;;;;;19.36;59.59;100923.41;5070127;28;20455;-58
2023/10/16 01:34:59;;;;;;;2.97;1.30;;;;;;;19.35;59.45;100923.75;5070549;28;20414;-59
2023/10/16 01:37:25;;;;;;;2.63;1.33;;;;;;;19.35;59.50;100916.00;5070737;28;20336;-59
2023/10/16 01:39:54;;;;;;;2.70;1.30;;;;;;;19.35;59.31;100916.00;5062935;28;20441;-59
2023/10/16 01:42:20;;;;;;;2.47;1.63;;;;;;;19.36;59.73;100923.41;5063976;28;20434;-58
2023/10/16 01:44:46;;;;;;;3.80;1.10;;;;;;;19.35;59.66;100916.00;5070307;28;20961;-58
2023/10/16 01:47:15;;;;;;;2.60;1.30;;;;;;;19.35;59.50;100920.91;5070472;28;20183;-58
2023/10/16 01:49:42;;;;;;;1.90;1.03;;;;;;;19.34;59.86;100925.81;5070806;28;20452;-58
2023/10/16 01:52:11;;;;;;;2.13;1.20;;;;;;;19.34;59.71;100925.81;5069977;28;21242;-58
2023/10/16 01:54:38;;;;;;;2.40;1.10;;;;;;;19.33;59.96;100921.28;5065144;28;20429;-59
2023/10/16 01:57:10;;;;;;;3.07;1.50;;;;;;;19.33;59.70;100924.16;5049549;28;20457;-58
2023/10/16 01:59:39;;;;;;;2.53;1.23;;;;;;;19.33;60.08;100920.44;5055845;28;20441;-59
2023/10/16 02:02:05;;;;;;;2.73;1.33;;;;;;;19.32;59.74;100918.78;5051078;28;20475;-59
2023/10/16 02:04:30;;;;;;;2.40;1.27;;;;;;;19.33;60.02;100917.59;5068757;28;20425;-58
2023/10/16 02:06:56;;;;;;;2.60;1.30;;;;;;;19.33;59.83;100917.59;5067264;28;20428;-58
2023/10/16 02:09:24;;;;;;;2.90;1.47;;;;;;;19.31;60.12;100917.13;5068326;28;20856;-58
2023/10/16 02:11:50;;;;;;;2.73;1.33;;;;;;;19.32;59.85;100915.94;5063145;28;20801;-58
2023/10/16 02:14:15;;;;;;;2.60;1.47;;;;;;;19.31;59.93;100909.38;5049246;28;20452;-58
2023/10/16 02:16:41;;;;;;;2.50;1.20;;;;;;;19.33;59.93;100900.41;5062121;28;20203;-58
2023/10/16 02:19:07;;;;;;;1.93;1.07;;;;;;;19.29;60.07;100903.19;5070233;28;20185;-58
2023/10/16 02:21:33;;;;;;;2.73;1.37;;;;;;;19.30;60.18;100898.28;5070294;28;20773;-59
2023/10/16 02:24:03;;;;;;;3.57;1.67;;;;;;;19.31;60.04;100894.25;5055334;28;20487;-59
2023/10/16 02:26:30;;;;;;;3.07;1.30;;;;;;;19.28;60.37;100887.22;5050035;28;20773;-58
2023/10/16 02:29:00;;;;;;;2.60;1.13;;;;;;;19.28;60.30;100886.38;5058286;28;20571;-58
2023/10/16 02:31:29;;;;;;;3.20;1.70;;;;;;;19.28;60.24;100892.94;5070119;28;20424;-58
2023/10/16 02:33:55;;;;;;;2.87;1.10;;;;;;;19.29;60.23;100891.75;5069559;28;20460;-59
2023/10/16 02:36:21;;;;;;;2.60;1.57;;;;;;;19.26;60.43;100888.78;5069995;28;20420;-58
2023/10/16 02:38:55;;;;;;;1.97;1.10;;;;;;;19.27;60.20;100888.41;5059954;28;20780;-58
2023/10/16 02:41:21;;;;;;;3.40;1.20;;;;;;;19.27;60.41;100879.81;5061211;28;20646;-59
2023/10/16 02:43:47;;;;;;;2.43;1.47;;;;;;;19.29;60.39;100888.88;5068742;28;20449;-58
2023/10/16 02:46:12;;;;;;;3.03;1.67;;;;;;;19.27;60.31;100885.53;5069898;28;20175;-58
2023/10/16 02:48:41;;;;;;;4.10;1.80;;;;;;;19.27;60.18;100890.44;5069345;28;20511;-58
2023/10/16 02:51:07;;;;;;;2.57;1.40;;;;;;;19.26;60.42;100883.06;5067594;28;20164;-58
2023/10/16 02:53:36;;;;;;;2.40;1.20;;;;;;;19.28;60.35;100880.66;5065355;28;20444;-59
2023/10/16 02:56:05;;;;;;;2.30;1.33;;;;;;;19.25;60.51;100881.38;5052404;28;20168;-59
2023/10/16 02:58:31;;;;;;;2.77;1.20;;;;;;;19.25;60.51;100879.38;5058094;28;20554;-58
2023/10/16 03:00:57;;;;;;;2.17;1.20;;;;;;;19.26;60.41;100878.16;5067611;28;20409;-59
2023/10/16 03:03:28;;;;;;;2.90;1.43;;;;;;;19.25;60.36;100876.50;5066859;28;20175;-59
2023/10/16 03:05:55;;;;;;;2.27;1.20;;;;;;;19.25;60.51;100879.38;5061108;28;20163;-58
2023/10/16 03:08:29;;;;;;;2.97;1.30;;;;;;;19.25;60.49;100873.63;5048556;28;20414;-58
2023/10/16 03:10:58;;;;;;;2.33;1.30;;;;;;;19.24;60.73;100874.84;5062972;28;20932;-59
2023/10/16 03:13:24;;;;;;;1.93;1.00;;;;;;;19.24;60.34;100869.13;5064883;28;20540;-57
2023/10/16 03:15:58;;;;;;;2.90;1.30;;;;;;;19.25;60.62;100869.94;5069718;28;20424;-58
2023/10/16 03:18:24;;;;;;;2.63;1.40;;;;;;;19.25;60.49;100882.22;5068900;28;20446;-59
2023/10/16 03:21:01;;;;;;;2.00;1.10;;;;;;;19.24;60.62;100866.25;5069258;28;20550;-58
2023/10/16 03:23:28;;;;;;;2.53;1.33;;;;;;;19.24;60.54;100871.13;5073716;28;20182;-58
2023/10/16 03:25:56;;;;;;;2.40;1.20;;;;;;;19.23;60.63;100866.63;5072618;28;20441;-59
2023/10/16 03:28:21;;;;;;;2.50;1.20;;;;;;;19.24;60.70;100874.00;5073619;28;20928;-58
2023/10/16 03:30:47;;;;;;;2.47;1.30;;;;;;;19.23;60.82;100864.59;5073658;28;20409;-59
2023/10/16 03:33:16;;;;;;;2.70;1.37;;;;;;;19.20;60.84;100868.16;5073391;28;20599;-58
2023/10/16 03:35:44;;;;;;;2.33;1.03;;;;;;;19.22;60.62;100865.78;5072450;28;20451;-58
2023/10/16 03:38:20;;;;;;;2.30;1.10;;;;;;;19.20;60.92;100859.59;5071023;28;20552;-58
2023/10/16 03:40:50;;;;;;;2.17;1.20;;;;;;;19.20;60.54;100851.00;5071674;28;20486;-59
2023/10/16 03:43:17;;;;;;;1.93;1.07;;;;;;;19.20;60.94;100861.59;5071200;28;20434;-58
2023/10/16 03:45:43;;;;;;;2.90;1.23;;;;;;;19.20;60.62;100856.72;5072224;28;20452;-58
2023/10/16 03:48:11;;;;;;;2.33;1.30;;;;;;;19.20;60.86;100851.00;5070668;28;20472;-58
2023/10/16 03:50:42;;;;;;;1.97;1.10;;;;;;;19.19;60.86;100843.63;5071967;28;20258;-59
2023/10/16 03:53:08;;;;;;;2.23;1.33;;;;;;;19.21;60.98;100849.78;5060734;28;20850;-58
2023/10/16 03:55:44;;;;;;;3.23;1.30;;;;;;;19.22;60.71;100842.88;5061499;28;20425;-58
2023/10/16 03:58:11;;;;;;;3.60;1.40;;;;;;;19.18;61.21;100830.50;5051754;28;20195;-59
2023/10/16 04:03:21;;;;;;;2.50;1.30;;;;;;;19.20;60.99;100833.81;5053442;28;20412;-58
2023/10/16 04:05:47;;;;;;;2.57;1.13;;;;;;;19.20;60.98;100833.81;5069247;28;20417;-58
2023/10/16 04:08:22;;;;;;;2.90;1.50;;;;;;;19.18;61.04;100838.25;5069738;28;20210;-59
2023/10/16 04:10:47;;;;;;;2.50;1.30;;;;;;;19.19;60.94;100842.78;5072593;28;20173;-58
2023/10/16 04:13:14;;;;;;;2.37;1.20;;;;;;;19.18;60.99;100832.53;5070401;28;20920;-58
2023/10/16 04:23:52;;;;;;;2.20;1.07;;;;;;;19.17;61.18;100823.09;5066754;28;20498;-58
2023/10/16 04:26:48;;;;;;;2.00;1.10;;;;;;;19.18;61.17;100830.50;5071995;28;20425;-59
2023/10/16 04:31:45;;;;;;;2.37;1.17;;;;;;;19.17;61.20;100817.38;5072217;28;20413;-58
2023/10/16 05:00:57;;;;;;;2.00;1.10;;;;;;;19.15;61.33;100814.06;5070270;28;20441;-58
2023/10/16 05:06:14;;;;;;;1.70;0.90;;;;;;;19.13;61.33;100805.03;5071963;28;20413;-58
2023/10/16 05:16:30;;;;;;;2.40;1.43;;;;;;;19.13;61.37;100799.31;5070942;28;20421;-58
2023/10/16 05:19:30;;;;;;;2.73;1.17;;;;;;;19.13;61.29;100798.47;5069585;28;20858;-58
2023/10/16 06:14:17;;;;;;;1.83;1.00;;;;;;;19.08;61.60;100795.91;5031288;28;20440;-57
2023/10/16 06:16:38;;;;;;;2.53;1.30;;;;;;;19.10;61.55;100802.06;5055670;28;20457;-58
2023/10/16 06:19:07;;;;;;;2.03;0.93;;;;;;;19.11;61.58;100806.63;5070222;28;20951;-57
2023/10/16 06:21:34;;;;;;;2.07;1.00;;;;;;;19.11;61.73;100801.69;5069549;28;21396;-58
2023/10/16 06:23:59;;;;;;;1.57;0.97;;;;;;;19.09;61.92;100804.13;5069907;28;20761;-58
2023/10/16 06:26:27;;;;;;;2.37;0.80;;;;;;;19.09;61.56;100812.72;5068612;28;20428;-58
2023/10/16 06:28:52;;;;;;;1.47;0.80;;;;;;;19.11;61.61;100812.34;5065749;28;20175;-58
2023/10/16 06:31:24;;;;;;;1.80;1.10;;;;;;;19.09;61.70;100818.44;5057618;28;20433;-59
2023/10/16 06:33:53;;;;;;;2.90;1.50;;;;;;;19.08;61.80;100810.22;5070482;28;20634;-57
2023/10/16 06:36:23;;;;;;;1.90;1.00;;;;;;;19.10;61.88;100820.09;5070006;28;20417;-58
2023/10/16 06:38:51;;;;;;;2.83;1.30;;;;;;;19.08;61.60;100813.91;5069329;28;20904;-57
2023/10/16 06:41:20;;;;;;;1.60;0.70;;;;;;;19.10;61.57;100816.38;5068386;28;20445;-57
2023/10/16 06:43:47;;;;;;;2.17;0.90;;;;;;;19.11;61.65;100809.47;5063505;28;20430;-57
2023/10/16 06:46:21;;;;;;;1.90;0.90;;;;;;;19.10;61.78;100817.22;5059364;28;20437;-59
2023/10/16 06:48:48;;;;;;;2.20;1.00;;;;;;;19.08;61.67;100819.63;5049146;28;20432;-57
2023/10/16 06:51:15;;;;;;;1.90;1.07;;;;;;;19.11;61.75;100810.28;5067939;28;20461;-59
2023/10/16 06:53:42;;;;;;;1.70;1.00;;;;;;;19.08;61.86;100816.78;5069912;28;20533;-57
2023/10/16 06:56:08;;;;;;;2.30;1.13;;;;;;;19.11;61.75;100813.16;5053757;28;20430;-57
2023/10/16 06:58:36;;;;;;;1.90;0.80;;;;;;;19.11;61.38;100818.06;5053307;28;20948;-57
2023/10/16 07:01:03;;;;;;;2.00;1.00;;;;;;;19.10;61.43;100816.38;5070135;28;20278;-58
2023/10/16 07:03:28;;;;;;;2.17;1.23;;;;;;;19.08;61.49;100818.78;5069843;28;21257;-57
2023/10/16 07:05:54;;;;;;;1.80;1.00;;;;;;;19.07;61.60;100831.44;5069349;28;20433;-57
2023/10/16 07:08:20;;;;;;;2.27;1.20;;;;;;;19.07;61.73;100823.69;5069287;28;20343;-57
2023/10/16 07:10:50;;;;;;;2.37;1.00;;;;;;;19.07;61.64;100811.41;5057508;28;20187;-58
2023/10/16 07:13:28;;;;;;;2.10;1.17;;;;;;;19.07;61.62;100814.28;5069339;28;20421;-58
2023/10/16 07:15:59;;;;;;;2.53;1.00;;;;;;;19.05;61.85;100814.66;5052318;28;20461;-58
2023/10/16 07:18:25;;;;;;;2.13;0.90;;;;;;;19.07;61.75;100814.28;5068261;28;20456;-59
2023/10/16 07:20:59;;;;;;;2.40;0.93;;;;;;;19.06;61.81;100819.16;5069097;28;20980;-58
2023/10/16 07:23:37;;;;;;;2.37;1.20;;;;;;;19.05;61.96;100814.66;5068577;28;20294;-57
2023/10/16 07:26:03;;;;;;;1.90;1.00;;;;;;;19.04;61.87;100813.00;5070223;28;20482;-57
2023/10/16 07:28:29;;;;;;;2.00;1.17;;;;;;;19.06;61.75;100816.28;5068953;28;20441;-58
2023/10/16 07:30:59;;;;;;;2.07;1.13;;;;;;;19.06;61.82;100827.75;5068896;28;20504;-58
2023/10/16 07:33:24;;;;;;;2.20;1.07;;;;;;;19.07;61.85;100829.41;5069613;28;20510;-58
2023/10/16 07:35:51;;;;;;;2.10;1.10;;;;;;;19.06;61.85;100821.22;5064556;28;20441;-58
2023/10/16 07:38:23;;;;;;;1.90;0.90;;;;;;;19.07;61.79;100832.25;5060198;28;20949;-58
2023/10/16 07:40:53;;;;;;;2.23;1.13;;;;;;;19.04;61.95;100829.31;5055720;28;20872;-57
2023/10/16 07:43:28;;;;;;;1.77;0.80;;;;;;;19.07;61.76;100820.00;5071850;28;20417;-58
2023/10/16 07:46:58;;;;;;;2.37;1.10;;;;;;;19.08;61.91;100830.25;5068819;28;20409;-58
2023/10/16 07:48:52;;;;;;;2.20;1.10;;;;;;;19.07;61.99;100817.13;5043033;28;20434;-57
2023/10/16 07:51:22;;;;;;;2.03;1.10;;;;;;;19.06;61.72;100822.03;5049706;28;20418;-58
2023/10/16 07:53:48;;;;;;;2.17;1.20;;;;;;;19.05;61.89;100828.94;5049089;28;20187;-58
2023/10/16 07:56:25;;;;;;;1.83;0.90;;;;;;;19.07;61.79;100835.13;5055762;28;20440;-58
2023/10/16 07:58:55;;;;;;;2.27;0.97;;;;;;;19.06;62.01;100830.59;5069507;28;20460;-58
2023/10/16 08:01:42;;;;;;;2.67;1.13;;;;;;;19.04;61.79;100835.03;5067596;28;20448;-58
2023/10/16 08:04:06;;;;;;;1.80;0.90;;;;;;;19.06;61.67;100839.19;5068405;28;20436;-58
2023/10/16 08:06:35;;;;;;;1.83;0.87;;;;;;;19.07;61.80;100840.03;5053104;28;20456;-57
2023/10/16 08:09:29;;;;;;;1.97;1.00;;;;;;;19.06;62.03;100841.25;5063600;28;20681;-58
2023/10/16 08:11:58;;;;;;;1.73;0.87;;;;;;;19.07;61.72;100842.91;5068168;28;20949;-58
2023/10/16 08:14:27;;;;;;;1.93;1.07;;;;;;;19.07;62.24;100848.63;5070912;28;20886;-57
2023/10/16 08:16:58;;;;;;;2.27;1.10;;;;;;;19.06;61.92;100850.63;5072279;28;20417;-57
2023/10/16 08:19:34;;;;;;;2.10;0.93;;;;;;;19.07;61.90;100846.56;5069227;28;20485;-57
2023/10/16 08:22:02;;;;;;;2.10;1.00;;;;;;;19.09;61.98;100846.19;5071987;28;20413;-57
2023/10/16 08:24:28;;;;;;;2.13;1.00;;;;;;;19.07;62.11;100851.47;5071453;28;20471;-58
2023/10/16 08:27:10;;;;;;;2.13;0.90;;;;;;;19.09;61.86;100847.03;5054345;28;20453;-58
2023/10/16 08:29:37;;;;;;;2.00;1.00;;;;;;;19.08;62.54;100847.41;5068708;28;20436;-58
2023/10/16 08:34:47;;;;;;;2.10;1.17;;;;;;;19.10;61.81;100845.00;5070794;28;20439;-57
2023/10/16 08:37:13;;;;;;;2.17;1.00;;;;;;;19.09;61.89;100849.91;5071082;28;20940;-58
2023/10/16 08:39:47;;;;;;;3.13;1.10;;;;;;;19.08;62.25;100842.53;5069869;28;20213;-58
2023/10/16 08:42:21;;;;;;;1.60;0.77;;;;;;;19.11;61.98;100840.97;5070320;28;20400;-57
2023/10/16 08:45:14;;;;;;;2.00;1.00;;;;;;;19.08;62.10;100844.56;5053907;28;20871;-59
2023/10/16 08:47:46;;;;;;;2.60;1.20;;;;;;;19.04;62.29;100833.03;5054873;28;20498;-59
2023/10/16 08:50:17;;;;;;;9.83;1.60;;;;;;;19.05;61.54;100834.69;5071301;28;20424;-59
2023/10/16 08:52:49;;;;;;;3.60;1.20;;;;;;;19.03;61.76;100834.22;5070389;28;20428;-57
2023/10/16 08:55:16;;;;;;;2.00;1.00;;;;;;;19.07;61.44;100834.31;5061574;28;20541;-57
2023/10/16 08:57:42;;;;;;;2.20;1.03;;;;;;;19.05;61.51;100831.81;5052231;28;20453;-58
2023/10/16 09:00:10;;;;;;;3.70;1.10;;;;;;;19.10;61.51;100828.66;5058955;28;20485;-58
2023/10/16 09:02:36;;;;;;;3.73;1.30;;;;;;;19.07;61.29;100831.44;5071898;28;20417;-58
2023/10/16 09:05:08;;;;;;;3.00;0.90;;;;;;;19.08;61.56;100831.09;5062344;28;20430;-58
2023/10/16 09:07:34;;;;;;;2.03;1.20;;;;;;;19.08;61.81;100831.09;5051570;28;20167;-58
2023/10/16 09:10:02;;;;;;;2.27;1.00;;;;;;;19.09;61.59;100827.00;5068408;28;20931;-58
2023/10/16 09:12:27;;;;;;;3.07;1.00;;;;;;;19.12;61.46;100828.31;5068021;28;20422;-59
2023/10/16 09:14:53;;;;;;;2.17;1.00;;;;;;;19.09;61.83;100827.00;5063712;28;20476;-58
2023/10/16 09:17:23;;;;;;;2.00;1.13;;;;;;;19.09;61.69;100821.28;5068374;28;20201;-58
2023/10/16 09:19:50;;;;;;;2.30;1.00;;;;;;;19.09;61.81;100821.28;5068378;28;20560;-58
2023/10/16 09:22:17;;;;;;;2.37;0.90;;;;;;;19.09;61.71;100814.72;5067899;28;20943;-58
2023/10/16 09:24:46;;;;;;;2.10;1.37;;;;;;;19.11;61.73;100813.16;5067719;28;20548;-57
2023/10/16 09:27:17;;;;;;;1.90;1.00;;;;;;;19.11;61.66;100821.72;5070258;28;20426;-58
2023/10/16 09:29:55;;;;;;;3.73;0.90;;;;;;;19.12;61.75;100808.25;5067507;28;20440;-59
2023/10/16 09:32:34;;;;;;;3.87;1.20;;;;;;;19.11;61.70;100806.63;5058326;28;20444;-58
2023/10/16 09:35:05;;;;;;;2.83;1.00;;;;;;;19.12;61.96;100808.25;5049046;28;20422;-58
2023/10/16 09:37:34;;;;;;;2.43;1.40;;;;;;;19.13;61.82;100804.19;5049724;28;20537;-57
2023/10/16 09:43:06;;;;;;;4.97;1.30;;;;;;;19.13;61.77;100793.59;5049556;28;20460;-58
2023/10/16 09:45:33;;;;;;;2.67;1.20;;;;;;;19.13;61.88;100798.47;5049709;28;20453;-58
2023/10/16 09:48:07;;;;;;;1.73;0.90;;;;;;;19.13;61.65;100787.03;5048905;28;20953;-57
2023/10/16 09:50:33;;;;;;;2.67;1.13;;;;;;;19.13;61.77;100787.88;5063437;28;20826;-58
2023/10/16 09:53:01;;;;;;;7.80;1.93;;;;;;;19.13;61.71;100793.59;5070429;28;20437;-58
2023/10/16 09:55:27;;;;;;;4.13;0.90;;;;;;;19.13;61.86;100785.00;5059576;28;20211;-57
2023/10/16 09:57:54;;;;;;;2.63;1.40;;;;;;;19.13;61.62;100776.41;5048972;28;20519;-57
2023/10/16 10:02:51;;;;;;;3.23;1.10;;;;;;;19.13;61.61;100787.88;5068396;28;20433;-57
2023/10/16 10:05:21;;;;;;;2.33;1.10;;;;;;;19.14;61.70;100777.22;5065272;28;20536;-57
2023/10/16 10:07:47;;;;;;;2.13;1.10;;;;;;;19.13;61.87;100772.72;5068458;28;20398;-58
2023/10/16 10:13:08;;;;;;;1.77;0.87;;;;;;;19.15;61.86;100773.16;5052470;28;20214;-58
2023/10/16 10:15:35;;;;;;;2.20;1.10;;;;;;;19.15;61.83;100774.00;5061694;28;20519;-57
2023/10/16 10:18:31;;;;;;;3.40;1.13;;;;;;;19.17;61.80;100771.56;5050943;28;20475;-58
2023/10/16 10:20:48;;;;;;;2.40;1.20;;;;;;;19.16;61.82;100771.97;5066816;28;20568;-58
2023/10/16 10:23:15;;;;;;;2.20;1.00;;;;;;;19.15;61.80;100776.03;5067880;28;20448;-58
2023/10/16 10:25:41;;;;;;;5.33;0.87;;;;;;;19.17;61.88;100773.63;5066851;28;20426;-58
2023/10/16 10:28:18;;;;;;;2.30;1.17;;;;;;;19.18;61.73;100766.69;5067726;28;20479;-58
2023/10/16 10:30:44;;;;;;;3.10;1.20;;;;;;;19.16;62.03;100767.06;5067706;28;20178;-57
2023/10/16 10:33:13;;;;;;;2.40;1.03;;;;;;;19.14;61.83;100772.34;5068821;28;20413;-58
2023/10/16 10:35:38;;;;;;;1.73;0.80;;;;;;;19.18;62.03;100769.56;5063260;28;20476;-58
2023/10/16 10:38:07;;;;;;;2.00;0.97;;;;;;;19.16;61.52;100769.94;5068189;28;20456;-58
2023/10/16 10:40:36;;;;;;;1.73;1.10;;;;;;;19.14;61.84;100757.19;5067177;28;20191;-58
2023/10/16 10:43:05;;;;;;;3.10;0.90;;;;;;;19.16;62.12;100758.47;5068578;28;20421;-58
2023/10/16 10:45:39;;;;;;;2.47;1.20;;;;;;;19.16;61.89;100752.75;5070207;28;20454;-57
2023/10/16 10:48:09;;;;;;;3.03;0.90;;;;;;;19.16;61.93;100749.09;5070076;28;20393;-58
2023/10/16 10:50:39;;;;;;;4.67;1.80;;;;;;;19.14;62.00;100740.88;5069171;28;20781;-57
2023/10/16 10:53:14;;;;;;;2.57;1.27;;;;;;;19.18;61.95;100738.06;5069850;28;20437;-58
2023/10/16 10:56:00;;;;;;;2.17;1.03;;;;;;;19.17;61.81;100731.50;5069096;28;20465;-57
2023/10/16 10:58:37;;;;;;;4.50;0.87;;;;;;;19.17;62.06;100740.09;5069389;28;20465;-57
2023/10/16 11:01:16;;;;;;;2.60;0.93;;;;;;;19.18;61.83;100732.34;5059078;28;20447;-58
2023/10/16 11:03:45;;;;;;;2.83;1.17;;;;;;;19.18;62.40;100723.75;5069019;28;20420;-57
2023/10/16 11:06:17;;;;;;;1.70;0.93;;;;;;;19.18;61.98;100721.75;5069021;28;20410;-57
2023/10/16 11:08:44;;;;;;;2.50;1.10;;;;;;;19.18;62.02;100716.00;5068013;28;21092;-57
2023/10/16 11:11:10;;;;;;;1.80;0.90;;;;;;;19.18;61.87;100710.28;5049679;28;20475;-57
2023/10/16 11:13:44;;;;;;;2.73;1.10;;;;;;;19.17;61.99;100705.75;5066292;28;20470;-57
2023/10/16 11:16:09;;;;;;;2.30;0.97;;;;;;;19.17;62.25;100708.63;5064845;28;20762;-57
2023/10/16 11:18:37;;;;;;;2.67;1.40;;;;;;;19.17;61.84;100705.75;5065749;28;20461;-57
2023/10/16 11:21:06;;;;;;;3.57;1.00;;;;;;;19.17;62.08;100697.16;5068007;28;20249;-58
2023/10/16 11:23:32;;;;;;;2.27;0.80;;;;;;;19.19;62.04;100689.03;5057075;28;20437;-57
2023/10/16 11:25:58;;;;;;;2.00;1.00;;;;;;;19.17;61.86;100685.72;5060136;28;20437;-57
2023/10/16 11:28:35;;;;;;;1.90;0.90;;;;;;;19.19;62.13;100674.72;5061377;28;20210;-58
2023/10/16 11:31:01;;;;;;;2.57;1.10;;;;;;;19.18;62.01;100669.38;5049304;28;20417;-58
2023/10/16 11:34:00;;;;;;;3.23;0.90;;;;;;;19.18;61.93;100666.53;5047851;28;20418;-56
2023/10/16 11:36:27;;;;;;;1.63;0.90;;;;;;;19.17;62.00;100656.28;5061903;28;20303;-58
2023/10/16 11:38:58;;;;;;;2.03;0.90;;;;;;;19.16;61.82;100651.78;5069245;28;20491;-57
2023/10/16 11:41:24;;;;;;;1.80;1.00;;;;;;;19.17;62.19;100656.28;5065480;28;20531;-57
2023/10/16 11:43:54;;;;;;;1.90;1.00;;;;;;;19.18;61.98;100647.31;5071963;28;20855;-57
2023/10/16 11:46:29;;;;;;;2.00;0.83;;;;;;;19.19;61.98;100643.25;5073031;28;20678;-58
2023/10/16 11:49:22;;;;;;;1.80;0.90;;;;;;;19.19;62.20;100626.06;5072537;28;20797;-57
2023/10/16 11:51:52;;;;;;;1.97;0.97;;;;;;;19.21;62.34;100632.25;5073134;28;20788;-58
2023/10/16 11:54:28;;;;;;;1.60;0.70;;;;;;;19.21;61.93;100622.84;5071705;28;20429;-58
2023/10/16 11:56:55;;;;;;;1.80;1.10;;;;;;;19.20;62.04;100616.28;5052510;28;20429;-57
2023/10/16 11:59:21;;;;;;;2.37;0.80;;;;;;;19.19;62.10;100626.06;5067946;28;20449;-58
2023/10/16 12:01:51;;;;;;;4.17;1.07;;;;;;;19.21;61.98;100620.78;5071192;28;20491;-57
2023/10/16 12:04:17;;;;;;;2.17;0.90;;;;;;;19.21;62.11;100609.34;5071262;28;20433;-57
2023/10/16 12:06:45;;;;;;;1.93;0.93;;;;;;;19.21;62.00;100602.81;5071232;28;20483;-58
2023/10/16 12:09:19;;;;;;;1.60;0.77;;;;;;;19.21;62.06;100599.94;5069565;28;20441;-57
2023/10/16 12:11:54;;;;;;;2.67;1.10;;;;;;;19.20;62.13;100604.81;5067246;28;20440;-58
2023/10/16 12:14:19;;;;;;;2.33;0.80;;;;;;;19.19;62.22;100600.31;5053945;28;20533;-58
2023/10/16 12:16:46;;;;;;;3.00;1.10;;;;;;;19.23;62.17;100601.25;5070733;28;20504;-57
2023/10/16 12:19:15;;;;;;;1.83;1.10;;;;;;;19.23;62.05;100592.66;5062869;28;21023;-58
2023/10/16 12:21:42;;;;;;;1.87;0.93;;;;;;;19.25;62.03;100577.94;5052074;28;20424;-58
2023/10/16 12:24:10;;;;;;;1.80;0.90;;;;;;;19.24;62.03;100580.00;5064577;28;20464;-57
2023/10/16 12:26:36;;;;;;;2.17;0.97;;;;;;;19.25;61.97;100578.78;5072125;28;20483;-57
2023/10/16 12:29:02;;;;;;;2.30;0.83;;;;;;;19.23;62.19;100569.78;5072297;28;21035;-58
2023/10/16 12:31:28;;;;;;;1.73;0.90;;;;;;;19.25;62.03;100561.63;5071216;28;20437;-57
2023/10/16 12:33:55;;;;;;;1.87;0.90;;;;;;;19.25;62.10;100561.63;5068036;28;20175;-58
2023/10/16 12:36:23;;;;;;;2.93;0.90;;;;;;;19.24;62.13;100554.25;5071057;28;21060;-58
2023/10/16 12:38:49;;;;;;;1.70;0.77;;;;;;;19.26;62.15;100546.09;5066152;28;20449;-57
2023/10/16 12:41:14;;;;;;;2.07;0.83;;;;;;;19.25;62.11;100543.59;5055707;28;20897;-57
2023/10/16 12:43:40;;;;;;;1.60;0.73;;;;;;;19.24;62.21;100537.06;5071713;28;20319;-57
2023/10/16 12:46:07;;;;;;;2.20;1.13;;;;;;;19.25;62.18;100538.72;5071574;28;20175;-57
2023/10/16 12:48:32;;;;;;;1.90;1.07;;;;;;;19.26;62.10;100531.78;5070245;28;20190;-58
2023/10/16 12:50:59;;;;;;;1.90;0.70;;;;;;;19.25;62.30;100540.75;5071617;28;20429;-57
2023/10/16 12:53:27;;;;;;;1.83;0.80;;;;;;;19.24;62.24;100531.34;5068836;28;20622;-57
2023/10/16 12:55:55;;;;;;;1.90;0.87;;;;;;;19.25;62.20;100529.28;5071118;28;21216;-58
2023/10/16 12:58:23;;;;;;;2.37;0.80;;;;;;;19.26;62.23;100528.09;5059146;28;20450;-58
2023/10/16 13:00:50;;;;;;;1.80;0.70;;;;;;;19.26;62.26;100528.91;5051178;28;20431;-57
2023/10/16 13:03:20;;;;;;;1.90;0.90;;;;;;;19.26;62.30;100528.91;5057198;28;20961;-58
2023/10/16 13:05:47;;;;;;;3.80;0.80;;;;;;;19.26;62.47;100522.38;5070572;28;20434;-58
2023/10/16 13:08:13;;;;;;;1.87;0.90;;;;;;;19.27;62.15;100524.03;5068604;28;20425;-58
2023/10/16 13:10:38;;;;;;;1.80;0.80;;;;;;;19.27;62.34;100513.38;5069314;28;20421;-58
2023/10/16 13:13:04;;;;;;;1.63;0.73;;;;;;;19.27;62.23;100501.13;5070504;28;20179;-58
2023/10/16 13:15:29;;;;;;;2.10;1.20;;;;;;;19.28;62.38;100497.06;5066370;28;20206;-59
2023/10/16 13:17:55;;;;;;;2.03;0.97;;;;;;;19.28;62.44;100497.91;5069477;28;20252;-58
2023/10/16 13:20:26;;;;;;;1.67;0.97;;;;;;;19.28;62.29;100497.06;5071501;28;20229;-58
2023/10/16 13:22:52;;;;;;;1.50;0.80;;;;;;;19.28;62.25;100489.31;5070739;28;20175;-58
2023/10/16 13:25:31;;;;;;;2.00;0.90;;;;;;;19.29;62.27;100493.81;5071031;28;20432;-58
2023/10/16 13:27:57;;;;;;;1.73;1.00;;;;;;;19.26;62.41;100488.84;5067055;28;20412;-58